sensor_id;sensor_type;location;lat;lon;timestamp;temperature;humidity
17092;DHT22;8661;45.700;4.880;2023-02-01T00:02:15;7.00;99.90
17092;DHT22;8661;45.700;4.880;2023-02-01T00:04:42;6.90;99.90
17092;DHT22;8661;45.700;4.880;2023-02-01T00:07:09;6.80;99.90
17092;DHT22;8661;45.700;4.880;2023-02-01T00:09:36;6.90;99.90
17092;DHT22;8661;45.700;4.880;2023-02-01T00:12:06;7.00;99.90
17092;DHT22;8661;45.700;4.880;2023-02-01T00:14:33;7.00;99.90
17092;DHT22;8661;45.700;4.880;2023-02-01T00:17:04;6.90;99.90
17092;DHT22;8661;45.700;4.880;2023-02-01T00:19:33;6.80;99.90
17092;DHT22;8661;45.700;4.880;2023-02-01T00:22:00;6.90;99.90
17092;DHT22;8661;45.700;4.880;2023-02-01T00:24:28;6.80;99.90
17092;DHT22;8661;45.700;4.880;2023-02-01T00:26:55;6.80;99.90
17092;DHT22;8661;45.700;4.880;2023-02-01T00:29:25;6.80;99.90
17092;DHT22;8661;45.700;4.880;2023-02-01T00:31:52;7.00;99.90
17092;DHT22;8661;45.700;4.880;2023-02-01T00:34:20;6.80;99.90
17092;DHT22;8661;45.700;4.880;2023-02-01T00:36:47;6.90;99.90
17092;DHT22;8661;45.700;4.880;2023-02-01T00:39:14;7.00;99.90
17092;DHT22;8661;45.700;4.880;2023-02-01T00:41:42;6.90;99.90
17092;DHT22;8661;45.700;4.880;2023-02-01T00:44:09;6.80;99.90
17092;DHT22;8661;45.700;4.880;2023-02-01T00:46:38;6.80;99.90
17092;DHT22;8661;45.700;4.880;2023-02-01T00:49:05;6.90;99.90
17092;DHT22;8661;45.700;4.880;2023-02-01T00:51:34;6.90;99.90
17092;DHT22;8661;45.700;4.880;2023-02-01T00:54:02;6.90;99.90
17092;DHT22;8661;45.700;4.880;2023-02-01T00:56:30;6.90;99.90
17092;DHT22;8661;45.700;4.880;2023-02-01T00:58:58;6.90;99.90
17092;DHT22;8661;45.700;4.880;2023-02-01T01:01:27;6.80;99.90
17092;DHT22;8661;45.700;4.880;2023-02-01T01:03:58;6.80;99.90
17092;DHT22;8661;45.700;4.880;2023-02-01T01:06:28;6.70;99.90
17092;DHT22;8661;45.700;4.880;2023-02-01T01:08:56;6.80;99.90
17092;DHT22;8661;45.700;4.880;2023-02-01T01:11:25;6.80;99.90
17092;DHT22;8661;45.700;4.880;2023-02-01T01:13:54;6.80;99.90
17092;DHT22;8661;45.700;4.880;2023-02-01T01:16:24;6.80;99.90
17092;DHT22;8661;45.700;4.880;2023-02-01T01:18:51;6.70;99.90
17092;DHT22;8661;45.700;4.880;2023-02-01T01:21:20;6.80;99.90
17092;DHT22;8661;45.700;4.880;2023-02-01T01:23:47;6.70;99.90
17092;DHT22;8661;45.700;4.880;2023-02-01T01:26:17;6.60;99.90
17092;DHT22;8661;45.700;4.880;2023-02-01T01:28:45;6.60;99.90
17092;DHT22;8661;45.700;4.880;2023-02-01T01:31:13;6.60;99.90
17092;DHT22;8661;45.700;4.880;2023-02-01T01:33:41;6.60;99.90
17092;DHT22;8661;45.700;4.880;2023-02-01T01:36:10;6.60;99.90
17092;DHT22;8661;45.700;4.880;2023-02-01T01:38:39;6.50;99.90
17092;DHT22;8661;45.700;4.880;2023-02-01T01:41:07;6.50;99.90
17092;DHT22;8661;45.700;4.880;2023-02-01T01:43:48;6.50;99.90
17092;DHT22;8661;45.700;4.880;2023-02-01T01:46:17;6.40;99.90
17092;DHT22;8661;45.700;4.880;2023-02-01T01:48:45;6.40;99.90
17092;DHT22;8661;45.700;4.880;2023-02-01T01:51:14;6.30;99.90
17092;DHT22;8661;45.700;4.880;2023-02-01T01:53:47;6.30;99.90
17092;DHT22;8661;45.700;4.880;2023-02-01T01:56:15;6.20;99.90
17092;DHT22;8661;45.700;4.880;2023-02-01T01:58:42;6.10;99.90
17092;DHT22;8661;45.700;4.880;2023-02-01T02:01:10;6.10;99.90
17092;DHT22;8661;45.700;4.880;2023-02-01T02:03:39;6.00;99.90
17092;DHT22;8661;45.700;4.880;2023-02-01T02:06:17;6.00;99.90
17092;DHT22;8661;45.700;4.880;2023-02-01T02:08:48;5.90;99.90
17092;DHT22;8661;45.700;4.880;2023-02-01T02:11:17;5.90;99.90
17092;DHT22;8661;45.700;4.880;2023-02-01T02:13:47;6.00;99.90
17092;DHT22;8661;45.700;4.880;2023-02-01T02:16:39;6.00;99.90
17092;DHT22;8661;45.700;4.880;2023-02-01T02:19:33;6.00;99.90
17092;DHT22;8661;45.700;4.880;2023-02-01T02:22:35;5.90;99.90
17092;DHT22;8661;45.700;4.880;2023-02-01T02:25:44;5.80;99.90
17092;DHT22;8661;45.700;4.880;2023-02-01T02:28:30;5.60;99.90
17092;DHT22;8661;45.700;4.880;2023-02-01T02:31:30;5.50;99.90
17092;DHT22;8661;45.700;4.880;2023-02-01T02:34:14;5.40;99.90
17092;DHT22;8661;45.700;4.880;2023-02-01T02:36:53;5.20;99.90
17092;DHT22;8661;45.700;4.880;2023-02-01T02:39:32;5.20;99.90
17092;DHT22;8661;45.700;4.880;2023-02-01T02:42:04;5.10;99.90
17092;DHT22;8661;45.700;4.880;2023-02-01T02:44:55;5.00;99.90
17092;DHT22;8661;45.700;4.880;2023-02-01T02:47:46;5.00;99.90
17092;DHT22;8661;45.700;4.880;2023-02-01T02:50:20;4.90;99.90
17092;DHT22;8661;45.700;4.880;2023-02-01T02:53:12;4.80;99.90
17092;DHT22;8661;45.700;4.880;2023-02-01T02:55:58;4.90;99.90
17092;DHT22;8661;45.700;4.880;2023-02-01T02:58:45;4.80;99.90
17092;DHT22;8661;45.700;4.880;2023-02-01T03:01:30;4.80;99.90
17092;DHT22;8661;45.700;4.880;2023-02-01T03:04:15;4.70;99.90
17092;DHT22;8661;45.700;4.880;2023-02-01T03:06:47;4.70;99.90
17092;DHT22;8661;45.700;4.880;2023-02-01T03:09:18;4.60;99.90
17092;DHT22;8661;45.700;4.880;2023-02-01T03:11:49;4.50;99.90
17092;DHT22;8661;45.700;4.880;2023-02-01T03:14:37;4.40;99.90
17092;DHT22;8661;45.700;4.880;2023-02-01T03:17:11;4.40;99.90
17092;DHT22;8661;45.700;4.880;2023-02-01T03:19:42;4.30;99.90
17092;DHT22;8661;45.700;4.880;2023-02-01T03:22:18;4.20;99.90
17092;DHT22;8661;45.700;4.880;2023-02-01T03:24:48;4.20;99.90
17092;DHT22;8661;45.700;4.880;2023-02-01T03:27:21;4.20;99.90
17092;DHT22;8661;45.700;4.880;2023-02-01T03:29:52;4.20;99.90
17092;DHT22;8661;45.700;4.880;2023-02-01T03:32:21;4.20;99.90
17092;DHT22;8661;45.700;4.880;2023-02-01T03:34:50;4.20;99.90
17092;DHT22;8661;45.700;4.880;2023-02-01T03:37:24;4.20;99.90
17092;DHT22;8661;45.700;4.880;2023-02-01T03:39:56;4.20;99.90
17092;DHT22;8661;45.700;4.880;2023-02-01T03:42:27;4.10;99.90
17092;DHT22;8661;45.700;4.880;2023-02-01T03:44:59;4.10;99.90
17092;DHT22;8661;45.700;4.880;2023-02-01T03:47:30;4.00;99.90
17092;DHT22;8661;45.700;4.880;2023-02-01T03:50:01;4.00;99.90
17092;DHT22;8661;45.700;4.880;2023-02-01T03:52:32;4.00;99.90
17092;DHT22;8661;45.700;4.880;2023-02-01T03:55:04;4.00;99.90
17092;DHT22;8661;45.700;4.880;2023-02-01T03:57:34;4.00;99.90
17092;DHT22;8661;45.700;4.880;2023-02-01T04:00:07;4.00;99.90
17092;DHT22;8661;45.700;4.880;2023-02-01T04:02:37;4.10;99.90
17092;DHT22;8661;45.700;4.880;2023-02-01T04:05:05;4.10;99.90
17092;DHT22;8661;45.700;4.880;2023-02-01T04:07:34;4.20;99.90
17092;DHT22;8661;45.700;4.880;2023-02-01T04:10:01;4.30;99.90
17092;DHT22;8661;45.700;4.880;2023-02-01T04:12:28;4.30;99.90
17092;DHT22;8661;45.700;4.880;2023-02-01T04:14:55;4.40;99.90
17092;DHT22;8661;45.700;4.880;2023-02-01T04:17:23;4.50;99.90
17092;DHT22;8661;45.700;4.880;2023-02-01T04:19:50;4.40;99.90
17092;DHT22;8661;45.700;4.880;2023-02-01T04:22:17;4.50;99.90
17092;DHT22;8661;45.700;4.880;2023-02-01T04:24:45;4.50;99.90
17092;DHT22;8661;45.700;4.880;2023-02-01T04:27:12;4.60;99.90
17092;DHT22;8661;45.700;4.880;2023-02-01T04:29:39;4.60;99.90
17092;DHT22;8661;45.700;4.880;2023-02-01T04:32:07;4.60;99.90
17092;DHT22;8661;45.700;4.880;2023-02-01T04:34:33;4.60;99.90
17092;DHT22;8661;45.700;4.880;2023-02-01T04:37:00;4.70;99.90
17092;DHT22;8661;45.700;4.880;2023-02-01T04:39:27;4.70;99.90
17092;DHT22;8661;45.700;4.880;2023-02-01T04:41:56;4.80;99.90
17092;DHT22;8661;45.700;4.880;2023-02-01T04:44:23;4.80;99.90
17092;DHT22;8661;45.700;4.880;2023-02-01T04:46:50;4.90;99.90
17092;DHT22;8661;45.700;4.880;2023-02-01T04:49:17;4.90;99.90
17092;DHT22;8661;45.700;4.880;2023-02-01T04:51:44;5.00;99.90
17092;DHT22;8661;45.700;4.880;2023-02-01T04:54:10;4.90;99.90
17092;DHT22;8661;45.700;4.880;2023-02-01T04:56:38;5.00;99.90
17092;DHT22;8661;45.700;4.880;2023-02-01T04:59:06;5.00;99.90
17092;DHT22;8661;45.700;4.880;2023-02-01T05:01:33;5.10;99.90
17092;DHT22;8661;45.700;4.880;2023-02-01T05:04:00;5.20;99.90
17092;DHT22;8661;45.700;4.880;2023-02-01T05:06:27;5.20;99.90
17092;DHT22;8661;45.700;4.880;2023-02-01T05:08:55;5.20;99.90
17092;DHT22;8661;45.700;4.880;2023-02-01T05:11:22;5.20;99.90
17092;DHT22;8661;45.700;4.880;2023-02-01T05:14:20;5.20;99.90
17092;DHT22;8661;45.700;4.880;2023-02-01T05:16:47;5.30;99.90
17092;DHT22;8661;45.700;4.880;2023-02-01T05:19:15;5.20;99.90
17092;DHT22;8661;45.700;4.880;2023-02-01T05:21:42;5.20;99.90
17092;DHT22;8661;45.700;4.880;2023-02-01T05:24:10;5.30;99.90
17092;DHT22;8661;45.700;4.880;2023-02-01T05:26:39;5.30;99.90
17092;DHT22;8661;45.700;4.880;2023-02-01T05:29:08;5.30;99.90
17092;DHT22;8661;45.700;4.880;2023-02-01T05:31:37;5.40;99.90
17092;DHT22;8661;45.700;4.880;2023-02-01T05:34:05;5.40;99.90
17092;DHT22;8661;45.700;4.880;2023-02-01T05:36:33;5.50;99.90
17092;DHT22;8661;45.700;4.880;2023-02-01T05:39:01;5.50;99.90
17092;DHT22;8661;45.700;4.880;2023-02-01T05:41:28;5.50;99.90
17092;DHT22;8661;45.700;4.880;2023-02-01T05:43:56;5.70;99.90
17092;DHT22;8661;45.700;4.880;2023-02-01T05:46:23;5.70;99.90
17092;DHT22;8661;45.700;4.880;2023-02-01T05:49:12;5.70;99.90
17092;DHT22;8661;45.700;4.880;2023-02-01T05:51:51;5.70;99.90
17092;DHT22;8661;45.700;4.880;2023-02-01T05:54:26;5.80;99.90
17092;DHT22;8661;45.700;4.880;2023-02-01T05:56:54;5.80;99.90
17092;DHT22;8661;45.700;4.880;2023-02-01T05:59:22;5.90;99.90
17092;DHT22;8661;45.700;4.880;2023-02-01T06:01:53;5.80;99.90
17092;DHT22;8661;45.700;4.880;2023-02-01T06:04:25;6.00;99.90
17092;DHT22;8661;45.700;4.880;2023-02-01T06:06:52;5.90;99.90
17092;DHT22;8661;45.700;4.880;2023-02-01T06:09:19;5.90;99.90
17092;DHT22;8661;45.700;4.880;2023-02-01T06:11:47;5.80;99.90
17092;DHT22;8661;45.700;4.880;2023-02-01T06:14:14;5.80;99.90
17092;DHT22;8661;45.700;4.880;2023-02-01T06:16:41;5.90;99.90
17092;DHT22;8661;45.700;4.880;2023-02-01T06:19:11;5.90;99.90
17092;DHT22;8661;45.700;4.880;2023-02-01T06:21:41;6.00;99.90
17092;DHT22;8661;45.700;4.880;2023-02-01T06:24:08;6.10;99.90
17092;DHT22;8661;45.700;4.880;2023-02-01T06:26:36;6.10;99.90
17092;DHT22;8661;45.700;4.880;2023-02-01T06:29:05;6.00;99.90
17092;DHT22;8661;45.700;4.880;2023-02-01T06:31:33;6.10;99.90
17092;DHT22;8661;45.700;4.880;2023-02-01T06:34:03;6.10;99.90
17092;DHT22;8661;45.700;4.880;2023-02-01T06:36:30;6.10;99.90
17092;DHT22;8661;45.700;4.880;2023-02-01T06:38:59;6.10;99.90
17092;DHT22;8661;45.700;4.880;2023-02-01T06:41:27;6.10;99.90
17092;DHT22;8661;45.700;4.880;2023-02-01T06:43:54;6.20;99.90
17092;DHT22;8661;45.700;4.880;2023-02-01T06:46:22;6.20;99.90
17092;DHT22;8661;45.700;4.880;2023-02-01T06:48:49;6.20;99.90
17092;DHT22;8661;45.700;4.880;2023-02-01T06:51:22;6.20;99.90
17092;DHT22;8661;45.700;4.880;2023-02-01T06:53:49;6.30;99.90
17092;DHT22;8661;45.700;4.880;2023-02-01T06:56:19;6.30;99.90
17092;DHT22;8661;45.700;4.880;2023-02-01T06:58:47;6.30;99.90
17092;DHT22;8661;45.700;4.880;2023-02-01T07:01:15;6.40;99.90
17092;DHT22;8661;45.700;4.880;2023-02-01T07:03:43;6.30;99.90
17092;DHT22;8661;45.700;4.880;2023-02-01T07:06:13;6.30;99.90
17092;DHT22;8661;45.700;4.880;2023-02-01T07:08:40;6.30;99.90
17092;DHT22;8661;45.700;4.880;2023-02-01T07:11:10;6.30;99.90
17092;DHT22;8661;45.700;4.880;2023-02-01T07:13:39;6.30;99.90
17092;DHT22;8661;45.700;4.880;2023-02-01T07:16:10;6.30;99.90
17092;DHT22;8661;45.700;4.880;2023-02-01T07:18:38;6.30;99.90
17092;DHT22;8661;45.700;4.880;2023-02-01T07:21:06;6.40;99.90
17092;DHT22;8661;45.700;4.880;2023-02-01T07:23:33;6.40;99.90
17092;DHT22;8661;45.700;4.880;2023-02-01T07:26:05;6.50;99.90
17092;DHT22;8661;45.700;4.880;2023-02-01T07:28:35;6.50;99.90
17092;DHT22;8661;45.700;4.880;2023-02-01T07:31:10;6.50;99.90
17092;DHT22;8661;45.700;4.880;2023-02-01T07:33:38;6.50;99.90
17092;DHT22;8661;45.700;4.880;2023-02-01T07:36:07;6.40;99.90
17092;DHT22;8661;45.700;4.880;2023-02-01T07:38:37;6.60;99.90
17092;DHT22;8661;45.700;4.880;2023-02-01T07:41:05;6.60;99.90
17092;DHT22;8661;45.700;4.880;2023-02-01T07:43:34;6.60;99.90
17092;DHT22;8661;45.700;4.880;2023-02-01T07:46:07;6.70;99.90
17092;DHT22;8661;45.700;4.880;2023-02-01T07:48:35;6.70;99.90
17092;DHT22;8661;45.700;4.880;2023-02-01T07:51:05;6.70;99.90
17092;DHT22;8661;45.700;4.880;2023-02-01T07:53:33;6.70;99.90
17092;DHT22;8661;45.700;4.880;2023-02-01T07:56:02;6.80;99.90
17092;DHT22;8661;45.700;4.880;2023-02-01T07:58:30;6.80;99.90
17092;DHT22;8661;45.700;4.880;2023-02-01T08:01:10;6.80;99.90
17092;DHT22;8661;45.700;4.880;2023-02-01T08:03:50;6.80;99.90
17092;DHT22;8661;45.700;4.880;2023-02-01T08:06:18;6.80;99.90
17092;DHT22;8661;45.700;4.880;2023-02-01T08:08:46;6.80;99.90
17092;DHT22;8661;45.700;4.880;2023-02-01T08:11:14;6.80;99.90
17092;DHT22;8661;45.700;4.880;2023-02-01T08:13:42;6.80;99.90
17092;DHT22;8661;45.700;4.880;2023-02-01T08:16:12;6.90;99.90
17092;DHT22;8661;45.700;4.880;2023-02-01T08:18:40;6.80;99.90
17092;DHT22;8661;45.700;4.880;2023-02-01T08:21:09;7.00;99.90
17092;DHT22;8661;45.700;4.880;2023-02-01T08:23:38;7.90;99.90
17092;DHT22;8661;45.700;4.880;2023-02-01T08:26:11;8.20;99.90
17092;DHT22;8661;45.700;4.880;2023-02-01T08:28:39;8.60;99.90
17092;DHT22;8661;45.700;4.880;2023-02-01T08:31:09;9.10;99.90
17092;DHT22;8661;45.700;4.880;2023-02-01T08:33:38;9.40;99.90
17092;DHT22;8661;45.700;4.880;2023-02-01T08:36:06;10.20;99.90
17092;DHT22;8661;45.700;4.880;2023-02-01T08:38:35;10.80;99.90
17092;DHT22;8661;45.700;4.880;2023-02-01T08:41:06;11.20;99.90
17092;DHT22;8661;45.700;4.880;2023-02-01T08:43:33;10.90;99.90
17092;DHT22;8661;45.700;4.880;2023-02-01T08:46:00;10.70;99.90
17092;DHT22;8661;45.700;4.880;2023-02-01T08:48:27;10.80;99.90
17092;DHT22;8661;45.700;4.880;2023-02-01T08:50:55;10.90;99.90
17092;DHT22;8661;45.700;4.880;2023-02-01T08:53:22;11.30;99.90
17092;DHT22;8661;45.700;4.880;2023-02-01T08:55:49;11.80;99.90
17092;DHT22;8661;45.700;4.880;2023-02-01T08:58:16;12.70;99.90
17092;DHT22;8661;45.700;4.880;2023-02-01T09:00:43;12.80;99.90
17092;DHT22;8661;45.700;4.880;2023-02-01T09:03:11;12.30;99.90
17092;DHT22;8661;45.700;4.880;2023-02-01T09:05:38;11.70;99.90
17092;DHT22;8661;45.700;4.880;2023-02-01T09:08:07;11.30;99.90
17092;DHT22;8661;45.700;4.880;2023-02-01T09:10:34;11.00;99.90
17092;DHT22;8661;45.700;4.880;2023-02-01T09:13:01;10.80;99.90
17092;DHT22;8661;45.700;4.880;2023-02-01T09:15:28;10.70;99.90
17092;DHT22;8661;45.700;4.880;2023-02-01T09:17:55;10.60;99.90
17092;DHT22;8661;45.700;4.880;2023-02-01T09:20:22;10.70;99.90
17092;DHT22;8661;45.700;4.880;2023-02-01T09:22:50;10.80;99.90
17092;DHT22;8661;45.700;4.880;2023-02-01T09:25:18;10.90;99.90
17092;DHT22;8661;45.700;4.880;2023-02-01T09:27:45;11.20;99.90
17092;DHT22;8661;45.700;4.880;2023-02-01T09:30:13;11.50;99.90
17092;DHT22;8661;45.700;4.880;2023-02-01T09:32:40;11.80;99.90
17092;DHT22;8661;45.700;4.880;2023-02-01T09:35:07;11.70;99.90
17092;DHT22;8661;45.700;4.880;2023-02-01T09:37:35;11.50;99.90
17092;DHT22;8661;45.700;4.880;2023-02-01T09:40:03;11.30;99.90
17092;DHT22;8661;45.700;4.880;2023-02-01T09:42:50;11.20;99.90
17092;DHT22;8661;45.700;4.880;2023-02-01T09:45:22;11.00;99.90
17092;DHT22;8661;45.700;4.880;2023-02-01T09:47:53;10.90;99.90
17092;DHT22;8661;45.700;4.880;2023-02-01T09:50:26;10.60;99.90
17092;DHT22;8661;45.700;4.880;2023-02-01T09:52:57;10.10;99.90
17092;DHT22;8661;45.700;4.880;2023-02-01T09:55:32;10.00;99.90
17092;DHT22;8661;45.700;4.880;2023-02-01T09:58:07;10.00;99.90
17092;DHT22;8661;45.700;4.880;2023-02-01T10:00:36;10.00;99.90
17092;DHT22;8661;45.700;4.880;2023-02-01T10:03:04;10.10;99.90
17092;DHT22;8661;45.700;4.880;2023-02-01T10:05:47;10.00;99.90
17092;DHT22;8661;45.700;4.880;2023-02-01T10:08:19;10.20;99.90
17092;DHT22;8661;45.700;4.880;2023-02-01T10:10:54;10.30;99.90
17092;DHT22;8661;45.700;4.880;2023-02-01T10:13:33;10.40;99.90
17092;DHT22;8661;45.700;4.880;2023-02-01T10:16:13;10.60;99.90
17092;DHT22;8661;45.700;4.880;2023-02-01T10:19:00;10.70;99.90
17092;DHT22;8661;45.700;4.880;2023-02-01T10:21:46;10.80;99.90
17092;DHT22;8661;45.700;4.880;2023-02-01T10:24:32;11.00;99.90
17092;DHT22;8661;45.700;4.880;2023-02-01T10:27:06;11.00;99.90
17092;DHT22;8661;45.700;4.880;2023-02-01T10:29:39;11.20;99.90
17092;DHT22;8661;45.700;4.880;2023-02-01T10:32:14;11.50;99.90
17092;DHT22;8661;45.700;4.880;2023-02-01T10:34:43;11.60;99.90
17092;DHT22;8661;45.700;4.880;2023-02-01T10:37:22;12.10;99.90
17092;DHT22;8661;45.700;4.880;2023-02-01T10:39:52;12.60;99.90
17092;DHT22;8661;45.700;4.880;2023-02-01T10:42:23;13.90;99.90
17092;DHT22;8661;45.700;4.880;2023-02-01T10:44:53;15.10;99.90
17092;DHT22;8661;45.700;4.880;2023-02-01T10:47:21;16.70;97.00
17092;DHT22;8661;45.700;4.880;2023-02-01T10:49:54;18.00;93.50
17092;DHT22;8661;45.700;4.880;2023-02-01T10:52:31;19.20;90.00
17092;DHT22;8661;45.700;4.880;2023-02-01T10:55:28;20.20;84.30
17092;DHT22;8661;45.700;4.880;2023-02-01T10:57:56;21.00;78.40
17092;DHT22;8661;45.700;4.880;2023-02-01T11:00:26;22.00;76.70
17092;DHT22;8661;45.700;4.880;2023-02-01T11:02:53;22.60;73.80
17092;DHT22;8661;45.700;4.880;2023-02-01T11:05:22;23.60;72.00
17092;DHT22;8661;45.700;4.880;2023-02-01T11:07:51;23.60;69.00
17092;DHT22;8661;45.700;4.880;2023-02-01T11:10:37;22.90;68.80
17092;DHT22;8661;45.700;4.880;2023-02-01T11:13:05;22.60;67.50
17092;DHT22;8661;45.700;4.880;2023-02-01T11:15:33;22.30;69.40
17092;DHT22;8661;45.700;4.880;2023-02-01T11:18:16;21.60;69.90
17092;DHT22;8661;45.700;4.880;2023-02-01T11:20:44;21.40;70.00
17092;DHT22;8661;45.700;4.880;2023-02-01T11:23:16;20.60;73.00
17092;DHT22;8661;45.700;4.880;2023-02-01T11:25:51;19.50;75.80
17092;DHT22;8661;45.700;4.880;2023-02-01T11:28:21;18.70;78.00
17092;DHT22;8661;45.700;4.880;2023-02-01T11:30:53;18.00;79.60
17092;DHT22;8661;45.700;4.880;2023-02-01T11:33:27;17.90;79.70
17092;DHT22;8661;45.700;4.880;2023-02-01T11:35:56;17.60;80.30
17092;DHT22;8661;45.700;4.880;2023-02-01T11:38:27;17.40;81.20
17092;DHT22;8661;45.700;4.880;2023-02-01T11:40:54;17.30;81.50
17092;DHT22;8661;45.700;4.880;2023-02-01T11:43:24;17.50;81.50
17092;DHT22;8661;45.700;4.880;2023-02-01T11:45:59;17.70;81.40
17092;DHT22;8661;45.700;4.880;2023-02-01T11:48:28;18.40;79.20
17092;DHT22;8661;45.700;4.880;2023-02-01T11:51:04;18.30;78.90
17092;DHT22;8661;45.700;4.880;2023-02-01T11:53:55;17.90;79.10
17092;DHT22;8661;45.700;4.880;2023-02-01T11:56:29;17.90;80.30
17092;DHT22;8661;45.700;4.880;2023-02-01T11:59:08;17.70;80.40
17092;DHT22;8661;45.700;4.880;2023-02-01T12:02:19;17.60;81.30
17092;DHT22;8661;45.700;4.880;2023-02-01T12:05:19;17.50;81.30
17092;DHT22;8661;45.700;4.880;2023-02-01T12:08:04;16.80;82.70
17092;DHT22;8661;45.700;4.880;2023-02-01T12:10:42;16.30;83.90
17092;DHT22;8661;45.700;4.880;2023-02-01T12:13:21;16.40;85.20
17092;DHT22;8661;45.700;4.880;2023-02-01T12:16:00;16.90;84.80
17092;DHT22;8661;45.700;4.880;2023-02-01T12:19:11;16.70;84.60
17092;DHT22;8661;45.700;4.880;2023-02-01T12:21:57;16.70;83.70
17092;DHT22;8661;45.700;4.880;2023-02-01T12:27:53;16.00;85.90
17092;DHT22;8661;45.700;4.880;2023-02-01T12:33:26;15.40;88.00
17092;DHT22;8661;45.700;4.880;2023-02-01T12:36:10;15.40;88.50
17092;DHT22;8661;45.700;4.880;2023-02-01T12:38:51;15.30;88.90
17092;DHT22;8661;45.700;4.880;2023-02-01T12:41:41;15.30;88.30
17092;DHT22;8661;45.700;4.880;2023-02-01T12:44:16;15.00;88.70
17092;DHT22;8661;45.700;4.880;2023-02-01T12:46:48;14.50;89.90
17092;DHT22;8661;45.700;4.880;2023-02-01T12:49:19;14.20;90.60
17092;DHT22;8661;45.700;4.880;2023-02-01T12:51:55;14.20;90.90
17092;DHT22;8661;45.700;4.880;2023-02-01T12:54:31;14.00;90.90
17092;DHT22;8661;45.700;4.880;2023-02-01T12:57:02;13.70;91.30
17092;DHT22;8661;45.700;4.880;2023-02-01T12:59:34;13.70;91.30
17092;DHT22;8661;45.700;4.880;2023-02-01T13:02:12;13.60;91.30
17092;DHT22;8661;45.700;4.880;2023-02-01T13:04:52;13.50;91.70
17092;DHT22;8661;45.700;4.880;2023-02-01T13:07:25;13.40;91.80
17092;DHT22;8661;45.700;4.880;2023-02-01T13:09:56;13.20;92.20
17092;DHT22;8661;45.700;4.880;2023-02-01T13:12:29;13.70;92.20
17092;DHT22;8661;45.700;4.880;2023-02-01T13:15:05;13.70;91.70
17092;DHT22;8661;45.700;4.880;2023-02-01T13:17:39;13.60;91.60
17092;DHT22;8661;45.700;4.880;2023-02-01T13:20:17;13.50;91.60
17092;DHT22;8661;45.700;4.880;2023-02-01T13:22:50;13.30;91.80
17092;DHT22;8661;45.700;4.880;2023-02-01T13:25:26;13.10;92.30
17092;DHT22;8661;45.700;4.880;2023-02-01T13:27:55;13.00;92.50
17092;DHT22;8661;45.700;4.880;2023-02-01T13:30:26;12.70;92.60
17092;DHT22;8661;45.700;4.880;2023-02-01T13:33:16;12.60;92.80
17092;DHT22;8661;45.700;4.880;2023-02-01T13:36:10;12.40;93.20
17092;DHT22;8661;45.700;4.880;2023-02-01T13:39:03;12.40;93.20
17092;DHT22;8661;45.700;4.880;2023-02-01T13:41:35;12.20;93.40
17092;DHT22;8661;45.700;4.880;2023-02-01T13:44:10;12.20;93.40
17092;DHT22;8661;45.700;4.880;2023-02-01T13:46:40;12.20;93.20
17092;DHT22;8661;45.700;4.880;2023-02-01T13:49:18;12.00;93.50
17092;DHT22;8661;45.700;4.880;2023-02-01T13:51:50;11.90;93.50
17092;DHT22;8661;45.700;4.880;2023-02-01T13:54:29;11.80;93.60
17092;DHT22;8661;45.700;4.880;2023-02-01T13:56:58;11.70;93.50
17092;DHT22;8661;45.700;4.880;2023-02-01T14:06:14;11.50;93.50
17092;DHT22;8661;45.700;4.880;2023-02-01T14:08:46;11.60;93.50
17092;DHT22;8661;45.700;4.880;2023-02-01T14:11:43;11.50;93.70
17092;DHT22;8661;45.700;4.880;2023-02-01T14:14:44;11.60;94.00
17092;DHT22;8661;45.700;4.880;2023-02-01T14:17:36;11.50;94.20
17092;DHT22;8661;45.700;4.880;2023-02-01T14:23:20;11.60;94.10
17092;DHT22;8661;45.700;4.880;2023-02-01T14:28:36;11.50;94.20
17092;DHT22;8661;45.700;4.880;2023-02-01T14:31:17;11.40;93.80
17092;DHT22;8661;45.700;4.880;2023-02-01T14:33:46;11.30;93.80
17092;DHT22;8661;45.700;4.880;2023-02-01T14:36:14;11.20;93.80
17092;DHT22;8661;45.700;4.880;2023-02-01T14:38:48;11.20;93.70
17092;DHT22;8661;45.700;4.880;2023-02-01T14:41:29;11.20;93.70
17092;DHT22;8661;45.700;4.880;2023-02-01T14:47:28;11.20;93.90
17092;DHT22;8661;45.700;4.880;2023-02-01T14:52:51;11.20;93.70
17092;DHT22;8661;45.700;4.880;2023-02-01T14:55:40;11.20;94.10
17092;DHT22;8661;45.700;4.880;2023-02-01T14:58:15;11.20;93.50
17092;DHT22;8661;45.700;4.880;2023-02-01T15:00:57;11.30;93.80
17092;DHT22;8661;45.700;4.880;2023-02-01T15:03:45;11.30;93.90
17092;DHT22;8661;45.700;4.880;2023-02-01T15:06:29;11.30;94.50
17092;DHT22;8661;45.700;4.880;2023-02-01T15:08:59;11.30;94.60
17092;DHT22;8661;45.700;4.880;2023-02-01T15:11:27;11.10;94.40
17092;DHT22;8661;45.700;4.880;2023-02-01T15:13:54;11.20;94.50
17092;DHT22;8661;45.700;4.880;2023-02-01T15:16:24;11.00;94.90
17092;DHT22;8661;45.700;4.880;2023-02-01T15:19:06;10.90;94.80
17092;DHT22;8661;45.700;4.880;2023-02-01T15:21:43;10.90;95.10
17092;DHT22;8661;45.700;4.880;2023-02-01T15:24:11;10.70;95.20
17092;DHT22;8661;45.700;4.880;2023-02-01T15:26:38;10.70;95.30
17092;DHT22;8661;45.700;4.880;2023-02-01T15:29:08;10.60;95.40
17092;DHT22;8661;45.700;4.880;2023-02-01T15:31:37;10.50;95.60
17092;DHT22;8661;45.700;4.880;2023-02-01T15:34:08;10.40;95.70
17092;DHT22;8661;45.700;4.880;2023-02-01T15:36:35;10.20;96.00
17092;DHT22;8661;45.700;4.880;2023-02-01T15:39:15;10.20;95.90
17092;DHT22;8661;45.700;4.880;2023-02-01T15:41:47;10.20;95.60
17092;DHT22;8661;45.700;4.880;2023-02-01T15:44:18;10.20;95.50
17092;DHT22;8661;45.700;4.880;2023-02-01T15:46:48;10.20;95.30
17092;DHT22;8661;45.700;4.880;2023-02-01T15:49:25;10.20;95.20
17092;DHT22;8661;45.700;4.880;2023-02-01T15:51:53;10.10;95.00
17092;DHT22;8661;45.700;4.880;2023-02-01T15:54:26;10.00;95.60
17092;DHT22;8661;45.700;4.880;2023-02-01T15:56:54;10.00;95.30
17092;DHT22;8661;45.700;4.880;2023-02-01T15:59:24;10.00;95.40
17092;DHT22;8661;45.700;4.880;2023-02-01T16:01:52;9.90;95.30
17092;DHT22;8661;45.700;4.880;2023-02-01T16:04:22;9.90;95.10
17092;DHT22;8661;45.700;4.880;2023-02-01T16:06:51;9.80;95.30
17092;DHT22;8661;45.700;4.880;2023-02-01T16:09:20;9.80;95.60
17092;DHT22;8661;45.700;4.880;2023-02-01T16:11:52;9.70;95.60
17092;DHT22;8661;45.700;4.880;2023-02-01T16:14:19;9.70;95.80
17092;DHT22;8661;45.700;4.880;2023-02-01T16:16:47;9.60;95.90
17092;DHT22;8661;45.700;4.880;2023-02-01T16:19:14;9.60;95.90
17092;DHT22;8661;45.700;4.880;2023-02-01T16:21:42;9.50;96.20
17092;DHT22;8661;45.700;4.880;2023-02-01T16:24:09;9.50;96.20
17092;DHT22;8661;45.700;4.880;2023-02-01T16:26:36;9.50;96.40
17092;DHT22;8661;45.700;4.880;2023-02-01T16:29:04;9.40;96.30
17092;DHT22;8661;45.700;4.880;2023-02-01T16:31:34;9.40;96.60
17092;DHT22;8661;45.700;4.880;2023-02-01T16:34:03;9.40;96.80
17092;DHT22;8661;45.700;4.880;2023-02-01T16:36:31;9.30;97.00
17092;DHT22;8661;45.700;4.880;2023-02-01T16:38:59;9.30;97.30
17092;DHT22;8661;45.700;4.880;2023-02-01T16:41:28;9.20;97.50
17092;DHT22;8661;45.700;4.880;2023-02-01T16:43:55;9.10;97.60
17092;DHT22;8661;45.700;4.880;2023-02-01T16:46:24;9.20;97.70
17092;DHT22;8661;45.700;4.880;2023-02-01T16:48:54;9.10;97.80
17092;DHT22;8661;45.700;4.880;2023-02-01T16:51:21;9.00;97.90
17092;DHT22;8661;45.700;4.880;2023-02-01T16:53:49;9.00;98.00